Time;durP1;ratioP1;P1;durP2;ratioP2;P2;SDS_P1;SDS_P2;PMS_P1;PMS_P2;Temp;Humidity;BMP_temperature;BMP_pressure;BME280_temperature;BME280_humidity;BME280_pressure;Samples;Min_cycle;Max_cycle;Signal;HPM_P1;HPM_P2
2023/09/01 00:02:24;;;;;;;123.83;119.17;;;;;;;24.89;59.13;98395.47;4938754;28;103569;-76
2023/09/01 00:05:05;;;;;;;132.50;127.50;;;;;;;25.10;59.56;98392.50;4943506;28;103153;-76
2023/09/01 00:07:34;;;;;;;143.18;137.98;;;;;;;25.32;59.51;98401.19;4939826;28;103053;-77
2023/09/01 00:10:03;;;;;;;136.27;131.05;;;;;;;25.07;60.90;98392.09;4917813;28;103070;-75
2023/09/01 00:12:33;;;;;;;147.25;141.70;;;;;;;25.18;59.71;98394.19;4945135;28;103906;-75
2023/09/01 00:15:04;;;;;;;138.63;133.43;;;;;;;25.10;61.10;98397.09;4941087;28;103146;-75
2023/09/01 00:17:32;;;;;;;141.25;135.95;;;;;;;25.03;61.46;98396.28;4949468;28;102878;-76
2023/09/01 00:20:02;;;;;;;136.15;130.85;;;;;;;25.22;59.67;98395.41;4943886;28;102595;-76
2023/09/01 00:22:32;;;;;;;126.88;122.25;;;;;;;25.09;60.28;98390.03;4941915;28;105002;-77
2023/09/01 00:25:00;;;;;;;130.90;126.10;;;;;;;25.44;59.34;98393.25;4937488;28;103425;-78
2023/09/01 00:27:28;;;;;;;111.00;106.90;;;;;;;25.14;59.29;98388.38;4943987;28;102637;-75
2023/09/01 00:29:56;;;;;;;129.55;124.75;;;;;;;24.99;61.17;98390.44;4943803;28;102551;-77
2023/09/01 00:32:26;;;;;;;113.65;109.45;;;;;;;25.07;59.68;98402.91;4932400;28;103222;-76
2023/09/01 00:34:57;;;;;;;113.95;109.70;;;;;;;25.27;59.80;98392.91;4943911;28;103310;-75
2023/09/01 00:37:25;;;;;;;123.60;118.87;;;;;;;25.15;61.31;98394.59;4937438;28;102817;-76
2023/09/01 00:39:54;;;;;;;129.57;124.72;;;;;;;25.38;61.19;98386.84;4938263;28;103085;-77
2023/09/01 00:42:22;;;;;;;127.50;122.70;;;;;;;25.27;61.26;98392.91;4943122;28;103481;-76
2023/09/01 00:44:50;;;;;;;138.27;133.15;;;;;;;25.40;61.06;98387.47;4925373;28;103305;-76
2023/09/01 00:47:21;;;;;;;130.57;125.68;;;;;;;25.27;60.97;98399.13;4924819;28;102967;-78
2023/09/01 00:49:49;;;;;;;81.88;78.72;;;;;;;24.50;64.53;98395.41;4922241;28;103175;-77
2023/09/01 00:52:17;;;;;;;66.82;64.00;;;;;;;24.47;64.76;98393.97;4944966;28;103249;-77
2023/09/01 00:54:45;;;;;;;60.87;58.37;;;;;;;24.59;65.20;98388.78;4942823;28;104362;-77
2023/09/01 00:57:17;;;;;;;80.57;77.28;;;;;;;24.46;64.35;98386.91;4943547;28;102604;-75
2023/09/01 00:59:45;;;;;;;80.20;77.03;;;;;;;24.76;63.64;98390.84;4944365;28;104015;-77
2023/09/01 01:02:13;;;;;;;74.90;71.90;;;;;;;24.42;64.19;98382.13;4942017;28;103822;-77
2023/09/01 01:04:43;;;;;;;121.10;116.60;;;;;;;25.12;62.95;98379.63;4931479;28;104045;-76
2023/09/01 01:07:16;;;;;;;113.38;109.18;;;;;;;25.05;62.16;98383.38;4941405;28;102598;-77
2023/09/01 01:09:53;;;;;;;133.40;128.52;;;;;;;25.24;60.40;98377.94;4945904;28;103766;-76
2023/09/01 01:12:30;;;;;;;93.72;90.32;;;;;;;25.21;58.77;98382.91;4928073;28;104186;-76
2023/09/01 01:14:59;;;;;;;96.38;92.80;;;;;;;25.16;58.64;98380.03;4944392;28;104294;-75
2023/09/01 01:17:28;;;;;;;101.60;97.80;;;;;;;24.97;59.57;98376.34;4942953;28;103537;-76
2023/09/01 01:20:13;;;;;;;99.57;95.88;;;;;;;25.35;58.91;98379.97;4945002;28;102902;-77
2023/09/01 01:22:47;;;;;;;99.00;95.10;;;;;;;24.46;61.84;98383.34;4926402;28;103370;-77
2023/09/01 01:25:16;;;;;;;123.00;118.50;;;;;;;24.81;61.24;98382.16;4944818;28;103221;-76
2023/09/01 01:27:44;;;;;;;99.43;95.63;;;;;;;24.58;61.60;98381.72;4929293;28;103004;-78
2023/09/01 01:30:14;;;;;;;112.63;108.23;;;;;;;24.77;61.18;98380.88;4941260;28;103426;-75
2023/09/01 01:32:42;;;;;;;118.88;114.47;;;;;;;24.91;60.69;98385.28;4944144;28;103755;-77
2023/09/01 01:35:17;;;;;;;118.85;114.45;;;;;;;25.02;60.64;98375.69;4932668;28;103798;-76
2023/09/01 01:37:53;;;;;;;115.35;111.05;;;;;;;25.08;60.48;98382.97;4939898;28;102993;-76
2023/09/01 01:40:24;;;;;;;114.97;110.60;;;;;;;24.89;60.76;98373.00;4918140;28;102699;-76
2023/09/01 01:42:54;;;;;;;99.25;95.53;;;;;;;24.90;59.52;98380.88;4946126;28;103355;-76
2023/09/01 01:45:25;;;;;;;95.07;91.57;;;;;;;24.65;60.04;98377.13;4943228;28;103541;-76
2023/09/01 01:47:53;;;;;;;97.90;94.20;;;;;;;24.57;60.96;98370.06;4944891;28;102889;-76
2023/09/01 01:50:21;;;;;;;87.85;84.40;;;;;;;24.41;59.98;98365.09;4941759;28;102583;-76
2023/09/01 01:52:49;;;;;;;86.63;83.18;;;;;;;24.46;60.42;98369.84;4928709;28;104198;-75
2023/09/01 01:55:17;;;;;;;85.70;82.50;;;;;;;23.89;62.54;98383.84;4943615;28;103303;-76
2023/09/01 01:57:46;;;;;;;98.93;95.07;;;;;;;24.68;60.92;98365.91;4944607;28;102667;-77
2023/09/01 02:00:15;;;;;;;90.73;87.20;;;;;;;24.27;61.55;98373.38;4940001;28;103323;-77
2023/09/01 02:02:43;;;;;;;94.53;90.95;;;;;;;24.06;62.39;98377.84;4946033;28;103884;-76
2023/09/01 02:05:11;;;;;;;98.75;95.05;;;;;;;24.25;62.43;98365.50;4942855;28;103180;-77
2023/09/01 02:07:39;;;;;;;89.65;86.28;;;;;;;23.95;62.85;98374.91;4936980;28;102544;-76
2023/09/01 02:10:10;;;;;;;104.72;100.82;;;;;;;24.50;61.34;98365.72;4940270;28;102679;-78
2023/09/01 02:12:38;;;;;;;98.47;94.78;;;;;;;24.03;63.10;98362.06;4943415;28;103877;-76
2023/09/01 02:15:11;;;;;;;92.75;89.32;;;;;;;24.04;63.06;98376.41;4926542;28;103280;-76
2023/09/01 02:17:38;;;;;;;106.15;102.25;;;;;;;24.41;61.66;98375.88;4943406;28;102664;-77
2023/09/01 02:20:16;;;;;;;96.97;93.28;;;;;;;24.96;59.68;98376.53;4943729;28;103946;-76
2023/09/01 02:22:45;;;;;;;97.57;93.95;;;;;;;24.89;59.62;98375.72;4943600;28;104011;-75
2023/09/01 02:25:13;;;;;;;89.53;86.13;;;;;;;24.65;60.16;98377.13;4944748;28;103248;-78
2023/09/01 02:27:42;;;;;;;90.23;86.83;;;;;;;24.31;61.95;98378.13;4916681;28;102550;-76
2023/09/01 02:30:13;;;;;;;91.23;87.70;;;;;;;23.84;63.63;98372.81;4942867;28;103113;-77
2023/09/01 02:32:41;;;;;;;103.13;99.32;;;;;;;24.46;62.01;98373.41;4926717;28;103398;-77
2023/09/01 02:35:09;;;;;;;89.55;86.15;;;;;;;24.49;61.34;98378.38;4944077;28;103326;-76
2023/09/01 02:37:38;;;;;;;101.88;97.90;;;;;;;24.91;61.41;98369.06;4944474;28;102935;-77
2023/09/01 02:40:10;;;;;;;100.47;96.80;;;;;;;24.91;60.53;98379.88;4928309;28;104539;-76
2023/09/01 02:42:40;;;;;;;93.43;89.93;;;;;;;24.15;63.53;98370.44;4940603;28;103232;-76
2023/09/01 02:45:12;;;;;;;91.50;87.85;;;;;;;23.78;65.40;98374.44;4928410;28;103170;-76
2023/09/01 02:47:41;;;;;;;101.25;97.45;;;;;;;24.33;63.32;98370.69;4942757;28;102982;-76
2023/09/01 02:50:09;;;;;;;106.70;102.75;;;;;;;24.06;63.14;98377.03;4938414;28;102567;-76
2023/09/01 02:52:37;;;;;;;99.83;96.03;;;;;;;24.33;62.86;98383.34;4927886;28;104780;-75
2023/09/01 02:55:06;;;;;;;101.85;98.03;;;;;;;24.59;61.26;98378.00;4943127;28;103388;-76
2023/09/01 02:57:35;;;;;;;103.10;99.30;;;;;;;24.32;63.39;98384.38;4942310;28;102659;-76
2023/09/01 03:00:14;;;;;;;111.90;107.80;;;;;;;24.69;62.05;98381.94;4929658;28;103042;-76
2023/09/01 03:02:44;;;;;;;105.68;101.80;;;;;;;25.25;60.27;98379.59;4941734;28;103394;-77
2023/09/01 03:05:12;;;;;;;98.63;94.93;;;;;;;24.36;62.65;98383.78;4942386;28;103694;-78
2023/09/01 03:07:42;;;;;;;95.13;91.63;;;;;;;24.37;63.02;98380.03;4930542;28;103027;-76
2023/09/01 03:10:10;;;;;;;109.40;105.40;;;;;;;24.87;60.98;98381.31;4940575;28;102779;-76
2023/09/01 03:12:39;;;;;;;103.72;99.93;;;;;;;24.69;61.76;98381.94;4927888;28;103281;-76
2023/09/01 03:15:09;;;;;;;106.60;102.70;;;;;;;25.14;60.38;98382.13;4947415;28;104095;-77
2023/09/01 03:17:40;;;;;;;116.70;112.40;;;;;;;24.76;62.43;98369.25;4948632;28;103256;-76
2023/09/01 03:20:12;;;;;;;125.23;120.43;;;;;;;24.50;62.94;98371.97;4944016;28;104331;-76
2023/09/01 03:22:40;;;;;;;117.43;113.03;;;;;;;24.24;63.42;98374.63;4947200;28;103556;-77
2023/09/01 03:25:10;;;;;;;115.85;111.60;;;;;;;24.30;63.75;98379.19;4948884;28;103121;-77
2023/09/01 03:27:41;;;;;;;127.63;122.93;;;;;;;24.75;62.40;98378.41;4936839;28;102712;-76
2023/09/01 03:30:11;;;;;;;129.63;124.83;;;;;;;24.81;62.18;98375.94;4944260;28;104392;-76
2023/09/01 03:32:42;;;;;;;115.50;111.27;;;;;;;24.56;63.25;98384.59;4943087;28;103278;-76
2023/09/01 03:35:12;;;;;;;120.32;115.63;;;;;;;24.68;63.29;98391.06;4948226;28;103501;-76
2023/09/01 03:37:41;;;;;;;115.53;111.22;;;;;;;24.84;62.55;98387.16;4926874;28;102888;-76
2023/09/01 03:40:10;;;;;;;121.95;117.43;;;;;;;24.89;62.47;98389.22;4941602;28;103480;-76
2023/09/01 03:42:39;;;;;;;123.97;119.43;;;;;;;25.21;60.38;98389.16;4929531;28;104531;-76
2023/09/01 03:45:08;;;;;;;115.83;111.53;;;;;;;25.15;60.61;98387.31;4942195;28;103370;-75
2023/09/01 03:47:36;;;;;;;109.00;104.90;;;;;;;25.01;61.08;98387.56;4928032;28;102964;-76
2023/09/01 03:50:05;;;;;;;119.53;115.00;;;;;;;25.37;59.96;98398.72;4945361;28;104005;-76
2023/09/01 03:52:34;;;;;;;104.03;100.13;;;;;;;24.85;61.60;98393.38;4941864;28;103286;-76
2023/09/01 03:55:02;;;;;;;100.97;97.07;;;;;;;24.82;61.91;98388.38;4946987;28;103328;-78
2023/09/01 03:57:30;;;;;;;110.65;106.65;;;;;;;25.16;60.90;98385.44;4941365;28;102919;-78
2023/09/01 03:59:57;;;;;;;98.03;94.33;;;;;;;24.71;61.76;98387.94;4944607;28;102740;-77
2023/09/01 04:02:25;;;;;;;112.97;108.72;;;;;;;25.22;60.60;98384.59;4946336;28;103575;-77
2023/09/01 04:04:53;;;;;;;108.70;104.65;;;;;;;25.05;60.94;98383.38;4948343;28;103743;-77
2023/09/01 04:07:21;;;;;;;103.53;99.63;;;;;;;24.93;61.51;98385.03;4947216;28;102972;-78
2023/09/01 04:09:50;;;;;;;99.68;95.90;;;;;;;24.51;61.80;98381.69;4933196;28;103056;-78
2023/09/01 04:12:20;;;;;;;91.95;88.50;;;;;;;24.43;62.86;98383.78;4946235;28;105648;-77
2023/09/01 04:14:48;;;;;;;103.30;99.37;;;;;;;24.78;61.88;98383.38;4943028;28;103582;-77
2023/09/01 04:17:17;;;;;;;111.70;107.53;;;;;;;25.22;60.08;98390.00;4932075;28;102623;-78
2023/09/01 04:19:47;;;;;;;104.15;100.22;;;;;;;25.09;60.33;98395.44;4955340;28;102687;-78
2023/09/01 04:22:14;;;;;;;92.82;89.43;;;;;;;24.43;62.88;98392.69;4938357;28;104047;-77
2023/09/01 04:24:43;;;;;;;95.13;91.55;;;;;;;24.33;63.68;98400.38;4936200;28;102726;-78
2023/09/01 04:27:12;;;;;;;89.55;86.05;;;;;;;24.06;64.57;98393.22;4943698;28;102625;-78
2023/09/01 04:29:40;;;;;;;100.57;96.73;;;;;;;24.45;63.11;98390.63;4930821;28;102821;-78
2023/09/01 04:32:25;;;;;;;106.43;102.43;;;;;;;24.56;62.26;98384.59;4926485;28;103915;-78
2023/09/01 04:34:52;;;;;;;108.90;104.80;;;;;;;24.35;63.24;98389.38;4923058;28;103573;-78
2023/09/01 04:37:21;;;;;;;114.35;110.15;;;;;;;24.96;61.05;98392.72;4937623;28;102629;-78
2023/09/01 04:39:49;;;;;;;111.00;106.72;;;;;;;24.40;62.67;98390.41;4932697;28;102881;-77
2023/09/01 04:42:18;;;;;;;104.88;100.90;;;;;;;24.39;63.09;98393.34;4934073;28;104148;-78
2023/09/01 04:44:46;;;;;;;107.18;103.28;;;;;;;24.51;62.86;98395.19;4944265;28;103341;-78
2023/09/01 04:47:13;;;;;;;126.30;121.72;;;;;;;25.25;60.40;98395.00;4941853;28;102857;-78
2023/09/01 04:49:41;;;;;;;114.77;110.60;;;;;;;25.33;59.70;98401.00;4943218;28;103038;-77
2023/09/01 04:52:09;;;;;;;121.65;117.03;;;;;;;25.34;59.17;98393.72;4932072;28;104192;-78
2023/09/01 04:54:37;;;;;;;117.88;113.38;;;;;;;25.59;59.01;98399.28;4930706;28;103439;-78
2023/09/01 04:57:07;;;;;;;121.22;116.75;;;;;;;25.61;58.25;98395.34;4942236;28;103040;-78
2023/09/01 04:59:36;;;;;;;133.83;128.93;;;;;;;26.01;57.63;98398.69;4929103;28;102942;-78
2023/09/01 05:02:05;;;;;;;127.93;123.23;;;;;;;26.13;57.40;98404.28;4943519;28;103581;-77
2023/09/01 05:04:33;;;;;;;135.00;129.90;;;;;;;26.06;57.12;98408.88;4944621;28;104182;-83
2023/09/01 05:07:01;;;;;;;139.73;134.52;;;;;;;26.10;57.00;98410.09;4940806;28;103651;-83
2023/09/01 05:09:29;;;;;;;128.48;123.72;;;;;;;25.91;57.98;98412.69;4945868;28;104004;-82
2023/09/01 05:12:00;;;;;;;117.70;113.38;;;;;;;25.99;58.59;98411.63;4941304;28;105196;-82
2023/09/01 05:14:28;;;;;;;97.30;93.68;;;;;;;25.55;59.71;98416.97;4940613;28;103883;-92
2023/09/01 05:16:58;;;;;;;112.27;108.17;;;;;;;25.86;58.29;98417.91;4948617;28;103008;-94
2023/09/01 05:19:26;;;;;;;111.40;107.30;;;;;;;25.79;58.81;98419.00;4942576;28;104160;-93
2023/09/01 05:21:56;;;;;;;100.95;97.03;;;;;;;25.26;60.51;98423.69;4933007;28;103336;-90
2023/09/01 05:24:24;;;;;;;110.25;106.10;;;;;;;25.66;58.89;98417.16;4930543;28;104379;-90
2023/09/01 05:26:52;;;;;;;109.30;105.30;;;;;;;25.74;59.26;98421.53;4926765;28;102604;-94
2023/09/01 05:29:20;;;;;;;119.50;115.03;;;;;;;25.90;59.31;98421.88;4943719;28;102821;-84
2023/09/01 05:31:48;;;;;;;117.63;113.32;;;;;;;26.12;58.80;98416.13;4947998;28;103474;-88
2023/09/01 05:34:19;;;;;;;130.48;125.57;;;;;;;26.08;59.41;98413.00;4944403;28;103096;-89
2023/09/01 05:36:47;;;;;;;132.15;127.20;;;;;;;26.14;58.81;98416.75;4941352;28;102590;-94
2023/09/01 05:39:15;;;;;;;136.38;131.27;;;;;;;26.13;59.81;98426.75;4945374;28;104154;-90
2023/09/01 05:41:42;;;;;;;126.95;122.05;;;;;;;25.70;61.76;98437.34;4944690;28;104275;-90
2023/09/01 05:44:10;;;;;;;135.63;130.48;;;;;;;25.91;61.52;98436.19;4940195;28;103350;-88
2023/09/01 05:46:38;;;;;;;145.18;139.68;;;;;;;26.13;61.52;98439.47;4948984;28;102819;-83
2023/09/01 05:49:07;;;;;;;135.03;129.83;;;;;;;26.18;61.49;98445.06;4945181;28;104155;-95
2023/09/01 05:51:36;;;;;;;98.28;94.45;;;;;;;26.15;63.50;98449.06;4930487;28;103521;-90
2023/09/01 05:54:04;;;;;;;73.18;70.35;;;;;;;26.17;63.32;98444.25;4930633;28;103451;-85
2023/09/01 05:56:32;;;;;;;54.55;52.38;;;;;;;25.98;64.05;98445.13;4946676;28;102731;-90
2023/09/01 05:59:00;;;;;;;51.85;49.75;;;;;;;25.94;64.33;98444.72;4945691;28;104916;-90
2023/09/01 06:01:32;;;;;;;58.20;55.90;;;;;;;26.10;63.57;98456.13;4947432;28;103433;-88
2023/09/01 06:04:00;;;;;;;62.88;60.45;;;;;;;26.31;64.43;98462.09;4931048;28;103977;-85
2023/09/01 06:06:28;;;;;;;64.30;61.80;;;;;;;26.40;64.12;98459.94;4945816;28;103010;-78
2023/09/01 06:08:58;;;;;;;62.10;59.67;;;;;;;26.48;64.50;98462.41;4931747;28;104211;-78
2023/09/01 06:11:28;;;;;;;57.47;55.27;;;;;;;26.55;64.34;98468.63;4939807;28;104227;-77
2023/09/01 06:13:56;;;;;;;48.20;46.30;;;;;;;26.45;64.03;98473.66;4938863;28;103086;-77
2023/09/01 06:16:25;;;;;;;29.03;27.83;;;;;;;26.26;65.38;98475.44;4947501;28;103864;-77
2023/09/01 06:18:53;;;;;;;33.60;32.20;;;;;;;26.44;65.14;98482.84;4949796;28;103188;-78
2023/09/01 06:21:21;;;;;;;44.20;42.42;;;;;;;26.55;64.66;98484.88;4945290;28;103424;-78
2023/09/01 06:23:49;;;;;;;39.22;37.53;;;;;;;26.48;64.80;98484.06;4939522;28;103198;-76
2023/09/01 06:26:19;;;;;;;45.95;44.08;;;;;;;26.54;64.70;98485.06;4946295;28;102683;-75
2023/09/01 06:28:48;;;;;;;66.43;63.83;;;;;;;26.53;64.49;98491.56;4944780;28;105007;-76
2023/09/01 06:31:16;;;;;;;71.95;69.15;;;;;;;26.64;64.82;98499.81;4944909;28;105355;-76
2023/09/01 06:33:47;;;;;;;50.78;48.67;;;;;;;26.11;65.34;98498.38;4943986;28;103173;-76
2023/09/01 06:36:17;;;;;;;22.35;21.35;;;;;;;25.73;67.34;98504.53;4928396;28;102921;-76
2023/09/01 06:38:47;;;;;;;18.70;17.90;;;;;;;25.38;70.85;98497.69;4925348;28;103552;-76
2023/09/01 06:41:15;;;;;;;17.15;16.38;;;;;;;25.90;69.30;98492.22;4946018;28;103104;-77
2023/09/01 06:43:44;;;;;;;25.83;24.63;;;;;;;26.14;67.83;98487.16;4949449;28;103383;-84
2023/09/01 06:46:14;;;;;;;32.38;31.08;;;;;;;26.49;66.82;98493.88;4950685;28;102611;-77
2023/09/01 06:48:43;;;;;;;46.35;44.55;;;;;;;26.69;66.21;98497.28;4930637;28;104360;-77
2023/09/01 06:51:11;;;;;;;38.45;36.95;;;;;;;26.64;66.07;98493.56;4944368;28;104633;-76
2023/09/01 06:53:39;;;;;;;51.65;49.65;;;;;;;26.89;65.78;98498.00;4951740;28;103191;-77
2023/09/01 06:56:06;;;;;;;51.65;49.65;;;;;;;26.97;65.90;98500.47;4948218;28;103080;-76
2023/09/01 06:58:34;;;;;;;54.28;51.97;;;;;;;27.04;65.25;98503.09;4951163;28;104585;-76
2023/09/01 07:01:08;;;;;;;32.42;31.13;;;;;;;26.78;65.75;98500.56;4952148;28;103441;-78
2023/09/01 07:03:36;;;;;;;32.07;30.77;;;;;;;26.99;65.77;98498.34;4950568;28;103068;-81
2023/09/01 07:06:18;;;;;;;26.42;25.20;;;;;;;27.08;65.53;98495.38;4946510;28;102748;-86
2023/09/01 07:09:06;;;;;;;36.05;34.55;;;;;;;27.35;65.07;98502.22;4948754;28;102822;-75
2023/09/01 07:11:37;;;;;;;25.25;24.15;;;;;;;27.10;65.53;98498.69;4946174;28;104121;-76
2023/09/01 07:14:05;;;;;;;24.48;23.38;;;;;;;27.15;66.02;98496.13;4946174;28;104777;-76
2023/09/01 07:16:38;;;;;;;22.83;21.63;;;;;;;26.83;66.86;98501.59;4940182;28;103495;-77
2023/09/01 07:19:08;;;;;;;21.38;20.38;;;;;;;26.89;66.19;98502.63;4946966;28;103676;-78
2023/09/01 07:21:37;;;;;;;20.58;19.58;;;;;;;26.92;65.94;98505.69;4956277;28;102936;-77
2023/09/01 07:24:06;;;;;;;17.17;16.38;;;;;;;26.59;66.73;98517.75;4954238;28;102614;-76
2023/09/01 07:26:34;;;;;;;16.92;16.20;;;;;;;26.72;67.51;98513.13;4951648;28;102584;-78
2023/09/01 07:29:02;;;;;;;19.48;18.67;;;;;;;27.11;65.97;98505.78;4946894;28;102862;-78
2023/09/01 07:31:40;;;;;;;18.15;17.35;;;;;;;26.95;66.08;98491.69;4939624;28;104139;-78
2023/09/01 07:34:09;;;;;;;17.60;16.80;;;;;;;26.96;66.38;98504.22;4937171;28;103139;-79
2023/09/01 07:36:37;;;;;;;20.25;19.45;;;;;;;27.27;65.65;98488.94;4935473;28;103162;-77
2023/09/01 07:39:05;;;;;;;30.40;29.30;;;;;;;27.55;65.00;98492.88;4943206;28;103062;-77
2023/09/01 07:41:33;;;;;;;27.42;26.23;;;;;;;27.58;64.88;98486.19;4938183;28;103573;-77
2023/09/01 07:44:01;;;;;;;19.38;18.58;;;;;;;27.42;65.42;98498.44;4939861;28;103387;-76
2023/09/01 07:46:33;;;;;;;16.63;15.82;;;;;;;26.97;67.51;98497.75;4944016;28;102721;-77
2023/09/01 07:49:01;;;;;;;18.80;18.00;;;;;;;27.44;66.31;98511.78;4954285;28;103280;-77
2023/09/01 07:51:32;;;;;;;16.73;16.03;;;;;;;27.62;66.14;98517.25;4960520;28;103673;-77
2023/09/01 07:54:03;;;;;;;18.15;17.15;;;;;;;27.77;65.94;98517.72;4952312;28;102960;-77
2023/09/01 07:56:33;;;;;;;22.53;21.63;;;;;;;27.20;68.83;98509.88;4933692;28;103514;-78
2023/09/01 07:59:05;;;;;;;20.70;19.70;;;;;;;27.18;68.37;98514.66;4950833;28;103535;-80
2023/09/01 08:01:33;;;;;;;20.10;19.17;;;;;;;27.14;67.93;98505.34;4948210;28;102611;-80
2023/09/01 08:04:02;;;;;;;18.35;17.55;;;;;;;27.43;67.22;98513.66;4953250;28;103522;-80
2023/09/01 08:06:30;;;;;;;18.83;18.02;;;;;;;27.65;67.04;98519.50;4940752;28;102941;-82
2023/09/01 08:08:59;;;;;;;22.65;21.55;;;;;;;27.17;69.05;98518.47;4948116;28;104222;-79
2023/09/01 08:11:27;;;;;;;20.38;19.48;;;;;;;26.99;68.80;98525.47;4952577;28;104167;-79
2023/09/01 08:13:55;;;;;;;19.55;18.55;;;;;;;27.69;67.23;98519.88;4944049;28;103770;-79
2023/09/01 08:16:23;;;;;;;17.92;17.13;;;;;;;27.96;67.16;98524.78;4941162;28;104093;-81
2023/09/01 08:18:51;;;;;;;18.67;17.77;;;;;;;27.95;66.19;98528.59;4934600;28;102800;-76
2023/09/01 08:21:18;;;;;;;22.35;21.35;;;;;;;28.32;64.65;98531.31;4931914;28;103535;-78
2023/09/01 08:23:49;;;;;;;25.98;24.80;;;;;;;28.50;64.59;98528.56;4954362;28;102901;-83
2023/09/01 08:26:18;;;;;;;30.10;28.83;;;;;;;28.70;62.95;98534.59;4936629;28;102630;-81
2023/09/01 08:28:46;;;;;;;32.40;31.07;;;;;;;29.16;62.52;98536.66;4952319;28;103149;-81
2023/09/01 08:31:14;;;;;;;45.60;43.78;;;;;;;29.37;61.73;98538.81;4958149;28;104317;-83
2023/09/01 08:33:42;;;;;;;46.03;44.03;;;;;;;29.40;61.62;98541.06;4952149;28;102612;-81
2023/09/01 08:36:13;;;;;;;31.47;30.17;;;;;;;29.11;63.07;98534.59;4956716;28;102678;-81
2023/09/01 08:38:41;;;;;;;40.00;38.35;;;;;;;29.42;62.22;98538.13;4951336;28;103334;-80
2023/09/01 08:41:10;;;;;;;29.85;28.45;;;;;;;29.19;62.75;98545.13;4937581;28;103483;-77
2023/09/01 08:43:40;;;;;;;36.83;35.27;;;;;;;28.91;63.46;98546.84;4941668;28;103291;-77
2023/09/01 08:46:08;;;;;;;29.85;28.38;;;;;;;28.99;63.94;98539.19;4944151;28;104338;-78
2023/09/01 08:48:42;;;;;;;36.80;35.30;;;;;;;29.84;62.02;98542.41;4950859;28;102965;-77
2023/09/01 08:51:14;;;;;;;48.90;46.90;;;;;;;29.91;61.07;98532.25;4950006;28;104139;-78
2023/09/01 08:53:45;;;;;;;65.88;63.10;;;;;;;30.17;59.43;98548.09;4946975;28;103853;-77
2023/09/01 08:56:13;;;;;;;42.67;40.67;;;;;;;29.91;61.20;98548.59;4950453;28;102593;-75
2023/09/01 08:58:44;;;;;;;54.60;52.40;;;;;;;30.33;60.86;98541.88;4945771;28;103441;-75
2023/09/01 09:01:14;;;;;;;62.05;59.58;;;;;;;30.89;59.42;98540.28;4947368;28;103309;-75
2023/09/01 09:03:42;;;;;;;71.47;68.55;;;;;;;30.75;59.05;98538.91;4940804;28;104040;-78
2023/09/01 09:06:13;;;;;;;46.80;44.90;;;;;;;30.29;61.13;98539.84;4957047;28;102946;-77
2023/09/01 09:08:41;;;;;;;60.30;57.90;;;;;;;30.13;60.64;98538.72;4947218;28;104200;-78
2023/09/01 09:11:13;;;;;;;86.13;82.73;;;;;;;29.95;61.58;98528.00;4927407;28;104405;-77
2023/09/01 09:13:43;;;;;;;61.03;58.63;;;;;;;29.47;61.30;98530.09;4948177;28;102630;-77
2023/09/01 09:16:23;;;;;;;86.57;83.15;;;;;;;29.45;60.86;98532.19;4947494;28;102696;-78
2023/09/01 09:18:51;;;;;;;60.77;58.27;;;;;;;29.49;61.99;98527.97;4946468;28;102915;-77
2023/09/01 09:21:28;;;;;;;68.90;66.10;;;;;;;29.75;60.68;98527.50;4949626;28;104143;-77
2023/09/01 09:23:57;;;;;;;56.08;53.78;;;;;;;29.44;61.87;98530.56;4948425;28;103141;-77
2023/09/01 09:26:45;;;;;;;56.57;54.17;;;;;;;29.97;60.81;98525.00;4920359;28;102996;-78
2023/09/01 09:29:15;;;;;;;103.43;99.50;;;;;;;29.41;60.52;98531.03;4949471;28;104322;-77
2023/09/01 09:31:44;;;;;;;118.85;114.25;;;;;;;29.72;59.83;98534.25;4950905;28;102557;-75
2023/09/01 09:34:17;;;;;;;102.83;98.90;;;;;;;28.96;60.51;98534.22;4951262;28;103238;-77
2023/09/01 09:36:46;;;;;;;119.30;114.75;;;;;;;29.67;60.00;98533.31;4947895;28;102775;-77
2023/09/01 09:39:24;;;;;;;101.53;97.63;;;;;;;29.56;58.25;98529.50;4947216;28;105671;-75
2023/09/01 09:41:53;;;;;;;124.37;119.63;;;;;;;29.74;59.75;98536.72;4951490;28;103099;-77
2023/09/01 09:44:33;;;;;;;136.27;130.98;;;;;;;30.13;55.52;98536.00;4947853;28;103770;-77
2023/09/01 09:47:02;;;;;;;106.00;101.95;;;;;;;29.70;58.43;98535.56;4947318;28;102675;-77
2023/09/01 09:49:32;;;;;;;114.35;110.03;;;;;;;30.25;56.69;98538.69;4938216;28;103202;-78
2023/09/01 09:52:01;;;;;;;101.47;97.63;;;;;;;29.42;58.30;98538.13;4948789;28;103486;-75
2023/09/01 09:54:32;;;;;;;100.53;96.63;;;;;;;28.65;60.71;98550.78;4950583;28;103082;-78
2023/09/01 09:57:06;;;;;;;94.82;91.18;;;;;;;28.86;59.33;98555.69;4958733;28;102598;-79
2023/09/01 09:59:43;;;;;;;96.10;92.37;;;;;;;28.93;58.92;98550.16;4959828;28;102756;-77
2023/09/01 10:02:23;;;;;;;89.85;86.35;;;;;;;29.20;59.48;98557.69;4968982;28;104293;-80
2023/09/01 10:04:52;;;;;;;58.93;56.73;;;;;;;29.23;60.30;98554.53;4952097;28;104379;-81
2023/09/01 10:07:21;;;;;;;72.50;69.77;;;;;;;28.35;62.77;98558.03;4953068;28;102875;-80
2023/09/01 10:09:53;;;;;;;79.97;76.93;;;;;;;28.50;62.51;98556.56;4944046;28;103244;-78
2023/09/01 10:12:22;;;;;;;75.65;72.75;;;;;;;28.73;62.40;98555.88;4951047;28;103406;-78
2023/09/01 10:14:54;;;;;;;92.07;88.38;;;;;;;28.67;63.52;98556.81;4941722;28;103139;-80
2023/09/01 10:17:22;;;;;;;112.67;105.80;;;;;;;29.28;62.42;98554.66;4921929;28;103347;-80
2023/09/01 10:19:50;;;;;;;84.97;81.63;;;;;;;28.32;63.70;98558.50;4942380;28;104003;-79
2023/09/01 10:22:19;;;;;;;91.30;87.70;;;;;;;29.40;61.81;98551.97;4923038;28;104856;-82
2023/09/01 10:25:09;;;;;;;103.88;99.70;;;;;;;29.77;59.27;98552.56;4939401;28;103281;-81
2023/09/01 10:27:38;;;;;;;92.53;89.00;;;;;;;29.48;60.28;98553.50;4940645;28;102877;-81
2023/09/01 10:30:25;;;;;;;99.15;95.35;;;;;;;29.68;58.96;98549.38;4941826;28;104038;-77
2023/09/01 10:33:04;;;;;;;84.17;80.80;;;;;;;28.99;60.03;98543.81;4928582;28;104242;-78
2023/09/01 10:35:38;;;;;;;93.28;89.65;;;;;;;29.66;57.43;98542.53;4942541;28;103978;-75
2023/09/01 10:38:10;;;;;;;84.30;80.97;;;;;;;29.51;60.10;98536.69;4941056;28;102911;-77
2023/09/01 10:40:42;;;;;;;90.50;86.97;;;;;;;29.98;56.90;98541.09;4930801;28;104187;-76
2023/09/01 10:43:11;;;;;;;93.43;89.82;;;;;;;29.73;57.90;98545.94;4939359;28;103316;-75
2023/09/01 10:46:02;;;;;;;104.38;100.28;;;;;;;30.26;56.88;98541.16;4944803;28;103109;-75
2023/09/01 10:48:48;;;;;;;104.70;100.70;;;;;;;30.59;55.97;98536.97;4940414;28;102873;-74
2023/09/01 10:51:18;;;;;;;96.88;93.22;;;;;;;30.91;55.82;98538.94;4941910;28;104137;-75
2023/09/01 10:53:46;;;;;;;105.10;101.05;;;;;;;31.08;53.43;98539.00;4939409;28;103584;-75
2023/09/01 10:56:15;;;;;;;93.22;89.72;;;;;;;31.21;54.99;98533.25;4932667;28;102755;-75
2023/09/01 10:58:49;;;;;;;101.80;97.87;;;;;;;30.44;55.09;98537.50;4941724;28;103360;-73
2023/09/01 11:01:36;;;;;;;92.33;88.60;;;;;;;30.04;55.89;98531.97;4941380;28;103271;-73
2023/09/01 11:04:32;;;;;;;123.20;118.60;;;;;;;30.85;53.36;98537.19;4940519;28;103180;-73
2023/09/01 11:07:06;;;;;;;91.05;87.55;;;;;;;30.13;54.36;98538.72;4940248;28;103327;-75
2023/09/01 11:09:52;;;;;;;100.10;96.23;;;;;;;30.83;54.51;98536.63;4938042;28;103037;-75
2023/09/01 11:12:31;;;;;;;117.80;113.20;;;;;;;30.93;53.14;98531.38;4939534;28;104293;-73
2023/09/01 11:15:05;;;;;;;108.97;104.78;;;;;;;30.82;53.47;98528.69;4942941;28;104020;-75
2023/09/01 11:17:43;;;;;;;109.38;105.18;;;;;;;30.76;54.37;98524.22;4928506;28;104738;-74